Eau Claire, Wisconsin
Current Conditions -  °F | °C
As of 2:52 PM on Sunday 21 Dec 2014 (Local Time) from KEAU Reporting Station
Haze Haze  
Wind Chill: 28°   Ceiling: 500
Heat Index: 36°   Visibility: 1.7mi
Dew Point: 34°   Wind: 12mph
Humidity: 93%   Direction: 170°S
Pressure: 29.82"   Gusts: NA
Location:  44.82°N, 91.5°W
Report Text: KEAU 212052Z 17010KT 1 3/4SM BR OVC005 02/01 A2982 RMK AO2
Loading
Personal Weather Stations






























Interactive Weather Map New forecast layout! Learn more

10-Day Weather Forecast

Advertisements
Track Severe Weather on mobile